createdAt,value
2022-08-16T00:00:59.689Z,2.13
2022-08-16T00:03:29.715Z,2.20
2022-08-16T00:06:01.078Z,1.77
2022-08-16T00:08:37.074Z,1.70
2022-08-16T00:11:03.508Z,1.57
2022-08-16T00:13:41.941Z,2.07
2022-08-16T00:17:01.067Z,1.70
2022-08-16T00:18:37.274Z,2.03
2022-08-16T00:21:06.774Z,1.80
2022-08-16T00:23:46.108Z,1.97
2022-08-16T00:26:35.308Z,2.03
2022-08-16T00:28:40.913Z,2.27
2022-08-16T00:31:12.138Z,2.00
2022-08-16T00:33:50.127Z,1.60
2022-08-16T00:36:14.572Z,1.97
2022-08-16T00:38:44.138Z,2.03
2022-08-16T00:41:13.797Z,2.00
2022-08-16T00:43:44.401Z,2.17
2022-08-16T00:46:34.138Z,1.80
2022-08-16T00:48:56.870Z,1.67
2022-08-16T00:51:29.399Z,1.73
2022-08-16T00:53:59.858Z,1.80
2022-08-16T00:56:56.202Z,1.73
2022-08-16T00:59:09.056Z,2.10
2022-08-16T01:01:41.649Z,2.30
2022-08-16T01:04:29.553Z,1.77
2022-08-16T01:06:49.257Z,2.20
2022-08-16T01:09:16.040Z,1.80
2022-08-16T01:11:55.053Z,1.70
2022-08-16T01:14:29.889Z,1.70
2022-08-16T01:17:00.031Z,2.00
2022-08-16T01:19:41.092Z,1.60
2022-08-16T01:22:48.171Z,1.97
2022-08-16T01:25:23.720Z,2.20
2022-08-16T01:27:59.474Z,2.03
2022-08-16T01:30:33.404Z,1.93
2022-08-16T01:33:14.344Z,2.47
2022-08-16T01:36:11.582Z,2.47
2022-08-16T01:38:38.533Z,1.50
2022-08-16T01:41:19.044Z,2.00
2022-08-16T01:43:54.247Z,2.00
2022-08-16T01:46:39.907Z,1.70
2022-08-16T01:49:14.995Z,1.83
2022-08-16T01:51:47.883Z,2.43
2022-08-16T01:54:17.378Z,1.87
2022-08-16T01:56:49.254Z,1.53
2022-08-16T01:59:19.573Z,1.63
2022-08-16T02:01:52.658Z,1.80
2022-08-16T02:04:49.249Z,1.70
2022-08-16T02:06:57.353Z,2.70
2022-08-16T02:09:27.195Z,2.10
2022-08-16T02:12:49.926Z,2.30
2022-08-16T02:14:32.743Z,1.93
2022-08-16T02:17:05.904Z,1.90
2022-08-16T02:19:58.549Z,1.77
2022-08-16T02:22:34.706Z,1.87
2022-08-16T02:24:49.379Z,2.20
2022-08-16T02:27:20.071Z,2.30
2022-08-16T02:29:49.749Z,2.37
2022-08-16T02:33:02.680Z,2.10
2022-08-16T02:34:52.172Z,2.10
2022-08-16T02:37:23.381Z,2.20
2022-08-16T02:39:54.117Z,2.20
2022-08-16T02:42:23.986Z,2.70
2022-08-16T02:44:53.653Z,2.10
2022-08-16T02:47:25.454Z,3.20
2022-08-16T02:50:36.239Z,3.00
2022-08-16T02:52:29.378Z,2.13
2022-08-16T02:54:58.037Z,1.87
2022-08-16T02:57:29.204Z,1.93
2022-08-16T03:00:00.206Z,1.93
2022-08-16T03:02:38.449Z,1.67
2022-08-16T03:05:13.501Z,1.77
2022-08-16T03:07:50.536Z,1.33
2022-08-16T03:10:16.155Z,1.83
2022-08-16T03:12:56.013Z,1.80
2022-08-16T03:15:18.918Z,2.40
2022-08-16T03:17:53.531Z,2.10
2022-08-16T03:20:20.787Z,2.10
2022-08-16T03:22:52.024Z,1.77
2022-08-16T03:25:23.495Z,1.90
2022-08-16T03:27:53.566Z,1.73
2022-08-16T03:30:28.080Z,2.30
2022-08-16T03:32:58.283Z,1.83
2022-08-16T03:35:33.576Z,1.43
2022-08-16T03:38:32.440Z,1.57
2022-08-16T03:40:39.640Z,2.43
2022-08-16T03:43:19.994Z,2.50
2022-08-16T03:45:44.744Z,2.20
2022-08-16T03:48:18.320Z,2.00
2022-08-16T03:50:59.601Z,2.20
2022-08-16T03:53:18.225Z,2.17
2022-08-16T03:55:48.159Z,1.67
2022-08-16T03:58:19.709Z,1.73
2022-08-16T04:00:56.834Z,2.40
2022-08-16T04:03:20.687Z,2.10
2022-08-16T04:05:54.237Z,2.07
2022-08-16T04:08:24.588Z,1.87
2022-08-16T04:10:57.911Z,1.73
2022-08-16T04:14:00.563Z,1.60
2022-08-16T04:16:01.352Z,1.90
2022-08-16T04:18:31.531Z,2.37
2022-08-16T04:21:02.270Z,2.60
2022-08-16T04:23:33.291Z,2.00
2022-08-16T04:26:02.773Z,2.20
2022-08-16T04:28:54.320Z,2.20
2022-08-16T04:31:03.484Z,1.97
2022-08-16T04:33:35.081Z,1.70
2022-08-16T04:36:04.887Z,1.70
2022-08-16T04:38:35.570Z,1.70
2022-08-16T04:41:05.131Z,2.43
2022-08-16T04:43:36.638Z,2.20
2022-08-16T04:46:06.955Z,2.60
2022-08-16T04:48:38.572Z,2.67
2022-08-16T04:51:12.386Z,2.30
2022-08-16T04:53:41.445Z,2.57
2022-08-16T04:56:11.905Z,2.23
2022-08-16T04:58:45.787Z,2.00
2022-08-16T05:01:12.705Z,1.73
2022-08-16T05:04:00.486Z,1.80
2022-08-16T05:06:15.285Z,1.77
2022-08-16T05:08:47.360Z,2.33
2022-08-16T05:11:20.093Z,1.87
2022-08-16T05:13:51.769Z,1.80
2022-08-16T05:16:30.044Z,2.40
2022-08-16T05:19:06.323Z,2.30
2022-08-16T05:21:38.884Z,2.17
2022-08-16T05:24:09.686Z,1.87
2022-08-16T05:26:43.273Z,1.83
2022-08-16T05:29:14.916Z,2.50
2022-08-16T05:31:44.229Z,1.97
2022-08-16T05:34:19.679Z,2.33
2022-08-16T05:36:44.641Z,2.20
2022-08-16T05:39:14.134Z,2.60
2022-08-16T05:41:45.984Z,2.87
2022-08-16T05:44:23.236Z,2.50
2022-08-16T05:46:49.114Z,2.33
2022-08-16T05:49:22.337Z,3.20
2022-08-16T05:51:51.623Z,3.23
2022-08-16T05:54:24.966Z,4.00
2022-08-16T05:56:52.864Z,2.70
2022-08-16T05:59:22.808Z,2.83
2022-08-16T06:01:53.578Z,3.50
2022-08-16T06:04:36.604Z,3.40
2022-08-16T06:06:57.740Z,3.47
2022-08-16T06:09:37.201Z,3.30
2022-08-16T06:12:01.349Z,3.63
2022-08-16T06:14:32.074Z,3.10
2022-08-16T06:17:05.330Z,3.87
2022-08-16T06:19:33.785Z,3.83
2022-08-16T06:22:04.694Z,3.40
2022-08-16T06:24:53.980Z,3.67
2022-08-16T06:27:05.523Z,4.83
2022-08-16T06:29:35.018Z,4.20
2022-08-16T06:32:04.738Z,3.33
2022-08-16T06:34:56.858Z,3.53
2022-08-16T06:37:05.732Z,3.80
2022-08-16T06:39:49.411Z,3.10
2022-08-16T06:42:08.322Z,3.70
2022-08-16T06:44:37.802Z,4.10
2022-08-16T06:47:09.168Z,3.73
2022-08-16T06:49:38.668Z,3.40
2022-08-16T06:52:55.456Z,4.93
2022-08-16T06:54:40.388Z,4.77
2022-08-16T06:57:16.640Z,3.70
2022-08-16T06:59:52.790Z,3.57
2022-08-16T07:02:32.301Z,3.70
2022-08-16T07:04:45.267Z,3.60
2022-08-16T07:07:14.771Z,3.17
2022-08-16T07:09:44.271Z,4.07
2022-08-16T07:12:15.438Z,4.40
2022-08-16T07:14:45.073Z,4.70
2022-08-16T07:17:17.660Z,3.90
2022-08-16T07:20:29.332Z,3.70
2022-08-16T07:22:37.529Z,3.30
2022-08-16T07:24:53.262Z,4.40
2022-08-16T07:27:23.742Z,4.43
2022-08-16T07:29:55.549Z,4.67
2022-08-16T07:32:29.654Z,4.53
2022-08-16T07:34:58.168Z,4.00
2022-08-16T07:37:27.667Z,4.40
2022-08-16T07:39:59.108Z,3.97
2022-08-16T07:42:35.028Z,4.67
2022-08-16T07:44:59.917Z,4.67
2022-08-16T07:47:31.445Z,4.07
2022-08-16T07:50:07.511Z,3.90
2022-08-16T07:52:34.290Z,4.63
2022-08-16T07:55:03.794Z,4.00
2022-08-16T07:57:37.958Z,3.60
2022-08-16T08:00:05.720Z,4.07
2022-08-16T08:02:36.692Z,3.67
2022-08-16T08:05:07.008Z,3.83
2022-08-16T08:07:37.528Z,3.70
2022-08-16T08:10:10.956Z,3.83
2022-08-16T08:12:41.441Z,4.50
2022-08-16T08:15:13.559Z,4.47
2022-08-16T08:17:44.651Z,3.77
2022-08-16T08:20:26.291Z,3.77
2022-08-16T08:22:52.252Z,3.70
2022-08-16T08:25:23.832Z,3.53
2022-08-16T08:27:57.710Z,3.53
2022-08-16T08:30:51.051Z,4.30
2022-08-16T08:32:59.391Z,3.23
2022-08-16T08:35:28.507Z,2.90
2022-08-16T08:37:58.096Z,3.40
2022-08-16T08:40:29.753Z,3.50
2022-08-16T08:43:12.611Z,3.30
2022-08-16T08:45:52.907Z,3.50
2022-08-16T08:48:04.435Z,3.10
2022-08-16T08:50:36.639Z,3.33
2022-08-16T08:53:08.094Z,2.83
2022-08-16T08:55:37.593Z,3.60
2022-08-16T08:58:08.155Z,2.90
2022-08-16T09:00:50.995Z,3.00
2022-08-16T09:03:10.594Z,2.80
2022-08-16T09:05:40.079Z,3.13
2022-08-16T09:08:12.816Z,3.30
2022-08-16T09:10:44.670Z,3.40
2022-08-16T09:13:15.113Z,3.33
2022-08-16T09:15:45.753Z,2.97
2022-08-16T09:18:25.384Z,3.33
2022-08-16T09:20:58.665Z,3.13
2022-08-16T09:23:22.865Z,2.90
2022-08-16T09:25:54.164Z,3.20
2022-08-16T09:29:13.839Z,2.40
2022-08-16T09:30:56.006Z,3.67
2022-08-16T09:33:25.543Z,2.90
2022-08-16T09:35:55.263Z,3.40
2022-08-16T09:38:32.141Z,2.70
2022-08-16T09:40:58.756Z,2.90
2022-08-16T09:43:59.338Z,3.13
2022-08-16T09:46:00.182Z,3.50
2022-08-16T09:48:44.110Z,2.90
2022-08-16T09:51:00.951Z,2.90
2022-08-16T09:53:32.389Z,2.63
2022-08-16T09:56:04.628Z,2.80
2022-08-16T09:58:41.970Z,2.60
2022-08-16T10:01:08.388Z,2.43
2022-08-16T10:03:38.420Z,2.90
2022-08-16T10:06:11.120Z,3.27
2022-08-16T10:09:04.302Z,2.87
2022-08-16T10:11:23.992Z,2.47
2022-08-16T10:13:53.776Z,2.40
2022-08-16T10:16:24.546Z,2.80
2022-08-16T10:19:01.791Z,2.77
2022-08-16T10:21:26.220Z,2.20
2022-08-16T10:23:57.504Z,2.67
2022-08-16T10:27:16.985Z,2.20
2022-08-16T10:29:00.521Z,2.60
2022-08-16T10:31:45.688Z,2.73
2022-08-16T10:34:03.017Z,2.70
2022-08-16T10:36:38.551Z,2.50
2022-08-16T10:39:05.716Z,2.80
2022-08-16T10:41:37.193Z,2.80
2022-08-16T10:44:09.650Z,2.50
2022-08-16T10:46:41.588Z,2.40
2022-08-16T10:49:12.646Z,3.00
2022-08-16T10:52:03.105Z,2.70
2022-08-16T10:54:29.277Z,2.70
2022-08-16T10:56:55.425Z,2.90
2022-08-16T10:59:44.096Z,3.43
2022-08-16T11:05:05.559Z,2.70
2022-08-16T11:07:08.222Z,2.57
2022-08-16T11:09:25.327Z,2.33
2022-08-16T11:12:13.472Z,2.70
2022-08-16T11:14:25.473Z,2.70
2022-08-16T11:17:11.085Z,2.97
2022-08-16T11:19:28.213Z,3.50
2022-08-16T11:22:39.723Z,3.23
2022-08-16T11:24:42.135Z,3.10
2022-08-16T11:27:20.494Z,3.50
2022-08-16T11:29:34.696Z,3.07
2022-08-16T11:32:06.078Z,2.80
2022-08-16T11:35:03.926Z,2.63
2022-08-16T11:37:15.002Z,2.40
2022-08-16T11:39:39.757Z,3.00
2022-08-16T11:42:16.774Z,2.40
2022-08-16T11:44:52.850Z,2.17
2022-08-16T11:47:11.777Z,2.70
2022-08-16T11:49:41.263Z,2.73
2022-08-16T11:52:11.296Z,2.60
2022-08-16T11:54:41.634Z,2.70
2022-08-16T11:57:14.062Z,2.57
2022-08-16T11:59:44.224Z,2.47
2022-08-16T12:02:31.939Z,2.67
2022-08-16T12:04:45.075Z,2.30
2022-08-16T12:07:16.036Z,2.10
2022-08-16T12:09:45.549Z,2.10
2022-08-16T12:12:15.385Z,2.37
2022-08-16T12:14:46.611Z,2.13
2022-08-16T12:17:16.103Z,2.13
2022-08-16T12:19:45.955Z,1.97
2022-08-16T12:22:19.907Z,2.07
2022-08-16T12:24:52.093Z,1.60
2022-08-16T12:27:23.032Z,1.93
2022-08-16T12:29:58.531Z,2.80
2022-08-16T12:32:53.275Z,2.53
2022-08-16T12:34:58.634Z,2.23
2022-08-16T12:37:29.409Z,2.20
2022-08-16T12:40:00.737Z,2.23
2022-08-16T12:42:35.555Z,2.07
2022-08-16T12:45:11.406Z,1.90
2022-08-16T12:48:29.451Z,2.00
2022-08-16T12:50:33.025Z,2.70
2022-08-16T12:53:02.242Z,2.23
2022-08-16T12:55:33.664Z,2.43
2022-08-16T12:58:06.122Z,2.37
2022-08-16T13:00:37.383Z,2.27
2022-08-16T13:03:09.292Z,2.00
2022-08-16T13:05:47.922Z,2.60
2022-08-16T13:08:20.204Z,2.40
2022-08-16T13:10:53.121Z,2.00
2022-08-16T13:13:26.031Z,2.60
2022-08-16T13:16:03.667Z,2.50
2022-08-16T13:18:35.598Z,2.30
2022-08-16T13:21:10.674Z,2.20
2022-08-16T13:23:43.480Z,2.00
2022-08-16T13:26:12.848Z,2.20
2022-08-16T13:28:46.285Z,2.23
2022-08-16T13:31:16.215Z,2.93
2022-08-16T13:33:46.527Z,2.10
2022-08-16T13:36:32.183Z,1.97
2022-08-16T13:38:49.344Z,2.20
2022-08-16T13:41:19.407Z,2.00
2022-08-16T13:43:57.557Z,1.73
2022-08-16T13:46:20.278Z,2.20
2022-08-16T13:48:50.049Z,2.33
2022-08-16T13:51:29.129Z,2.50
2022-08-16T13:54:05.961Z,2.70
2022-08-16T13:56:39.638Z,2.30
2022-08-16T13:59:19.862Z,2.50
2022-08-16T14:01:45.465Z,2.20
2022-08-16T14:04:19.094Z,2.00
2022-08-16T14:06:46.646Z,2.07
2022-08-16T14:09:16.505Z,1.77
2022-08-16T14:11:47.728Z,2.10
2022-08-16T14:14:19.280Z,1.80
2022-08-16T14:16:50.504Z,1.80
2022-08-16T14:19:22.420Z,1.40
2022-08-16T14:21:56.696Z,2.10
2022-08-16T14:24:30.239Z,1.90
2022-08-16T14:26:54.687Z,3.23
2022-08-16T14:29:26.173Z,2.30
2022-08-16T14:32:08.326Z,2.13
2022-08-16T14:34:38.959Z,2.10
2022-08-16T14:37:10.414Z,2.00
2022-08-16T14:39:40.588Z,1.97
2022-08-16T14:42:19.235Z,1.77
2022-08-16T14:44:50.932Z,1.80
2022-08-16T14:47:20.615Z,1.70
2022-08-16T14:49:52.341Z,1.90
2022-08-16T14:52:51.832Z,2.23
2022-08-16T14:54:55.477Z,1.67
2022-08-16T14:57:25.348Z,1.70
2022-08-16T15:00:00.799Z,1.80
2022-08-16T15:02:34.441Z,1.83
2022-08-16T15:05:00.653Z,1.90
2022-08-16T15:07:35.362Z,1.77
2022-08-16T15:10:07.000Z,1.73
2022-08-16T15:12:36.792Z,1.87
2022-08-16T15:15:16.481Z,1.80
2022-08-16T15:17:56.220Z,1.70
2022-08-16T15:20:18.146Z,1.60
2022-08-16T15:22:51.998Z,1.33
2022-08-16T15:25:29.933Z,1.67
2022-08-16T15:28:02.582Z,1.40
2022-08-16T15:30:57.175Z,1.63
2022-08-16T15:33:15.042Z,1.20
2022-08-16T15:35:47.103Z,1.30
2022-08-16T15:38:43.584Z,1.57
2022-08-16T15:40:57.947Z,1.60
2022-08-16T15:43:19.115Z,1.60
2022-08-16T15:46:07.390Z,1.70
2022-08-16T15:48:40.213Z,1.80
2022-08-16T15:51:09.791Z,1.70
2022-08-16T15:53:41.772Z,1.30
2022-08-16T15:56:11.112Z,1.50
2022-08-16T15:58:42.346Z,1.43
2022-08-16T16:01:13.702Z,1.67
2022-08-16T16:03:44.148Z,1.50
2022-08-16T16:06:17.575Z,1.30
2022-08-16T16:08:50.701Z,1.50
2022-08-16T16:11:20.275Z,1.30
2022-08-16T16:13:51.909Z,1.40
2022-08-16T16:16:22.410Z,1.20
2022-08-16T16:18:52.076Z,1.40
2022-08-16T16:21:21.983Z,1.53
2022-08-16T16:23:54.727Z,1.13
2022-08-16T16:26:23.614Z,1.03
2022-08-16T16:29:08.373Z,1.47
2022-08-16T16:31:27.714Z,1.30
2022-08-16T16:34:00.940Z,1.27
2022-08-16T16:36:34.515Z,1.40
2022-08-16T16:39:08.335Z,1.30
2022-08-16T16:41:42.142Z,1.20
2022-08-16T16:44:18.237Z,1.10
2022-08-16T16:46:44.004Z,1.50
2022-08-16T16:49:15.783Z,1.17
2022-08-16T16:51:50.079Z,0.87
2022-08-16T16:54:27.497Z,0.90
2022-08-16T16:56:50.575Z,1.33
2022-08-16T16:59:22.221Z,1.10
2022-08-16T17:01:57.492Z,1.10
2022-08-16T17:04:32.534Z,1.00
2022-08-16T17:06:59.904Z,1.03
2022-08-16T17:09:30.162Z,0.73
2022-08-16T17:12:00.222Z,1.43
2022-08-16T17:14:32.653Z,0.90
2022-08-16T17:17:02.370Z,1.40
2022-08-16T17:19:32.185Z,0.97
2022-08-16T17:22:03.011Z,0.90
2022-08-16T17:24:40.115Z,1.47
2022-08-16T17:27:06.062Z,1.00
2022-08-16T17:29:42.821Z,0.90
2022-08-16T17:32:47.184Z,0.90
2022-08-16T17:34:45.230Z,1.47
2022-08-16T17:37:17.422Z,0.70
2022-08-16T17:40:00.120Z,0.80
2022-08-16T17:42:20.322Z,0.80
2022-08-16T17:44:51.284Z,0.90
2022-08-16T17:47:20.883Z,1.00
2022-08-16T17:49:50.636Z,0.80
2022-08-16T17:52:20.497Z,1.23
2022-08-16T17:54:49.985Z,0.83
2022-08-16T17:57:19.556Z,0.83
2022-08-16T17:59:50.072Z,0.70
2022-08-16T18:02:43.408Z,0.90
2022-08-16T18:04:57.237Z,0.70
2022-08-16T18:07:26.729Z,0.77
2022-08-16T18:09:56.305Z,0.80
2022-08-16T18:12:45.327Z,0.60
2022-08-16T18:15:00.173Z,0.67
2022-08-16T18:17:29.822Z,0.60
2022-08-16T18:19:59.309Z,0.60
2022-08-16T18:22:34.150Z,0.73
2022-08-16T18:25:05.164Z,0.70
2022-08-16T18:27:36.438Z,0.70
2022-08-16T18:30:06.344Z,1.20
2022-08-16T18:32:35.851Z,0.80
2022-08-16T18:35:05.635Z,0.73
2022-08-16T18:37:35.140Z,0.93
2022-08-16T18:40:06.434Z,0.97
2022-08-16T18:42:36.015Z,1.00
2022-08-16T18:45:07.130Z,0.70
2022-08-16T18:47:36.689Z,1.00
2022-08-16T18:50:06.819Z,0.80
2022-08-16T18:52:36.310Z,0.80
2022-08-16T18:55:14.075Z,0.77
2022-08-16T18:57:37.570Z,0.80
2022-08-16T19:00:10.008Z,0.90
2022-08-16T19:02:57.995Z,1.03
2022-08-16T19:05:22.746Z,0.80
2022-08-16T19:07:53.177Z,1.67
2022-08-16T19:10:23.511Z,1.27
2022-08-16T19:12:53.359Z,1.27
2022-08-16T19:15:27.105Z,0.90
2022-08-16T19:17:56.843Z,1.30
2022-08-16T19:20:29.773Z,0.90
2022-08-16T19:23:05.813Z,0.90
2022-08-16T19:25:46.680Z,1.00
2022-08-16T19:28:08.220Z,0.97
2022-08-16T19:30:41.544Z,0.80
2022-08-16T19:33:12.431Z,0.90
2022-08-16T19:35:41.953Z,0.83
2022-08-16T19:38:11.845Z,1.00
2022-08-16T19:40:41.696Z,1.03
2022-08-16T19:43:13.002Z,1.13
2022-08-16T19:45:46.147Z,0.80
2022-08-16T19:48:14.249Z,0.90
2022-08-16T19:50:43.756Z,1.63
2022-08-16T19:53:18.576Z,1.10
2022-08-16T19:55:49.081Z,0.80
2022-08-16T19:58:18.559Z,1.00
2022-08-16T20:00:49.823Z,1.27
2022-08-16T20:03:24.026Z,1.10
2022-08-16T20:05:53.613Z,0.90
2022-08-16T20:08:23.205Z,1.10
2022-08-16T20:10:52.718Z,1.20
2022-08-16T20:13:25.637Z,1.23
2022-08-16T20:15:56.812Z,1.40
2022-08-16T20:18:26.289Z,1.20
2022-08-16T20:20:55.906Z,1.30
2022-08-16T20:23:25.662Z,1.40
2022-08-16T20:25:56.376Z,1.33
2022-08-16T20:28:53.146Z,1.30
2022-08-16T20:30:57.897Z,1.10
2022-08-16T20:33:27.417Z,1.17
2022-08-16T20:35:56.994Z,1.17
2022-08-16T20:38:26.483Z,1.03
2022-08-16T20:40:55.987Z,0.90
2022-08-16T20:43:25.467Z,1.10
2022-08-16T20:45:54.971Z,1.37
2022-08-16T20:48:24.464Z,1.33
2022-08-16T20:50:55.546Z,1.37
2022-08-16T20:53:25.093Z,1.23
2022-08-16T20:55:54.632Z,1.57
2022-08-16T20:58:24.160Z,1.50
2022-08-16T21:00:53.772Z,1.20
2022-08-16T21:03:23.424Z,1.50
2022-08-16T21:05:53.038Z,1.53
2022-08-16T21:08:50.046Z,1.40
2022-08-16T21:10:53.894Z,1.40
2022-08-16T21:13:25.650Z,1.53
2022-08-16T21:15:55.619Z,1.70
2022-08-16T21:18:25.684Z,1.40
2022-08-16T21:20:55.483Z,1.47
2022-08-16T21:23:25.199Z,1.20
2022-08-16T21:25:59.161Z,1.47
2022-08-16T21:28:41.553Z,1.83
2022-08-16T21:30:57.262Z,1.40
2022-08-16T21:33:26.802Z,1.43
2022-08-16T21:35:57.187Z,1.30
2022-08-16T21:38:28.891Z,1.53
2022-08-16T21:40:58.417Z,1.60
2022-08-16T21:43:31.289Z,1.63
2022-08-16T21:46:03.447Z,1.50
2022-08-16T21:48:36.067Z,1.20
2022-08-16T21:51:13.065Z,1.63
2022-08-16T21:53:44.206Z,1.47
2022-08-16T21:56:17.351Z,1.77
2022-08-16T21:58:46.391Z,1.77
2022-08-16T22:01:17.631Z,1.70
2022-08-16T22:03:47.142Z,1.50
2022-08-16T22:06:16.910Z,1.60
2022-08-16T22:08:51.146Z,1.50
2022-08-16T22:11:23.159Z,1.53
2022-08-16T22:13:58.869Z,1.47
2022-08-16T22:16:28.009Z,1.60
2022-08-16T22:18:57.772Z,1.80
2022-08-16T22:21:28.018Z,1.40
2022-08-16T22:23:58.941Z,1.57
2022-08-16T22:26:32.600Z,1.13
2022-08-16T22:29:05.048Z,1.53
2022-08-16T22:31:35.599Z,1.20
2022-08-16T22:34:05.795Z,1.30
2022-08-16T22:36:36.227Z,1.73
2022-08-16T22:39:10.362Z,1.40
2022-08-16T22:41:42.984Z,1.50
2022-08-16T22:44:13.182Z,1.30
2022-08-16T22:46:42.702Z,1.37
2022-08-16T22:49:13.030Z,1.63
2022-08-16T22:51:43.093Z,1.70
2022-08-16T22:54:41.291Z,1.43
2022-08-16T22:56:45.851Z,1.10
2022-08-16T22:59:15.387Z,1.23
2022-08-16T23:01:45.137Z,1.17
2022-08-16T23:04:14.732Z,1.83
2022-08-16T23:06:44.285Z,1.30
2022-08-16T23:09:13.820Z,1.30
2022-08-16T23:11:43.519Z,1.27
2022-08-16T23:14:13.251Z,1.27
2022-08-16T23:16:43.081Z,1.10
2022-08-16T23:19:15.536Z,1.80
2022-08-16T23:21:49.476Z,1.67
2022-08-16T23:24:20.831Z,2.07
2022-08-16T23:26:50.435Z,1.97
2022-08-16T23:29:26.290Z,1.47
2022-08-16T23:31:59.460Z,1.37
2022-08-16T23:34:30.598Z,1.50
2022-08-16T23:37:00.138Z,1.73
2022-08-16T23:39:29.772Z,1.50
2022-08-16T23:42:00.166Z,1.20
2022-08-16T23:44:55.744Z,1.70
2022-08-16T23:47:00.946Z,1.50
2022-08-16T23:49:56.135Z,1.33
2022-08-16T23:52:10.937Z,1.70
2022-08-16T23:54:40.485Z,1.73
2022-08-16T23:57:10.076Z,1.60
2022-08-16T23:59:48.635Z,1.40
